ADDS TAF Board (Experimental) INFO Settings
IDs: Format: Expanded Condensed

KLAS - Las Vegas/McCarran I, NV, US

Issued at 2128 UTC 06 May 2016
Updated at: 2236 UTC 06 May 2016
Time2224Z 06/23Z 07/00Z 07/01Z 07/02Z 07/03Z 07/04Z 07/05Z 07/06Z 07/07Z 07/08Z 07/09Z 07/10Z 07/11Z
Type OBS PRVL PRVL PRVL PRVL PRVL PRVL PRVL PRVL PRVL PRVL PRVL PRVL PRVL
VIS 10 >6 >6 >6 >6 >6 >6 >6 >6 >6 >6 >6 >6 >6
CIG 80 100 100 200 200 200 200 200 200 200 200 200 200 200
Cover OVC BKN BKN BKN BKN BKN BKN BKN BKN BKN BKN BKN BKN BKN
FltCat VFR VFR VFR VFR VFR VFR VFR VFR VFR VFR VFR VFR VFR VFR
WX TS -SHRA VCTS -SHRA VCTS -- -- -- -- -- -- -- -- -- -- --
WDir 90 100 100 200 200 200 200 200 200 200 200 200 200 200
WSpd 13 10 10 11 11 11 11 11 11 11 11 11 11 11
WGst -- -- -- -- -- -- -- -- -- -- -- -- -- --
R01/19
XWnd -12 -10 -10 -1 -1 -1 -1 -1 -1 -1 -1 -1 -1 -1
HWnd 5 3 3 -11 -11 -11 -11 -11 -11 -11 -11 -11 -11 -11
R07/25
XWnd 0 -2 -2 -10 -10 -10 -10 -10 -10 -10 -10 -10 -10 -10
HWnd 13 10 10 -4 -4 -4 -4 -4 -4 -4 -4 -4 -4 -4

NOTE: TEMPO conditions in [brackets]. Keep in mind TEMPO conditions might be better (lower impact) than prevailing conditions.

Raw TAF
KLAS 062128Z 0621/0718 10010KT P6SM -SHRA VCTS SCT070CB BKN100 BKN200
  FM070100 20011KT P6SM SCT090 BKN200
  FM071300 19010KT P6SM FEW090 SCT250


Raw METAR
KLAS 062224Z 09013KT 10SM TS BKN080CB OVC110 17/05 A2977 RMK AO2 TSB24 OCNL LTGICCG SW TS SW MOV N VCSH E-SW T01720050
KLAS 062156Z 07013KT 10SM BKN080 OVC110 18/06 A2976 RMK AO2 TSB2058E26 SLP065 TS MOV NW SH DSNT NE-E-S AND DSNT SW T01780056
KLAS 062127Z 09013KT 10SM BKN080 OVC110 19/04 A2977 RMK AO2 TSB2058E26 TS MOV NW SH DSNT E-S AND DSNT SW T01890044
KLAS 062059Z 09009KT 10SM TS BKN080CB OVC110 19/04 A2976 RMK AO2 TSB58 OCNL LTGCG S TS S-SW MOV N T01940039
KLAS 062056Z 10008KT 10SM SCT085 BKN110 OVC220 19/03 A2976 RMK AO2 SLP063 LTG DSNT S SH DSNT NE-E-S 60000 T01940033 55002
KLAS 061956Z 00000KT 10SM SCT080 BKN110 BKN220 19/02 A2975 RMK AO2 RAB20E30 SLP058 LTG DSNT E CB DSNT W-NW P0000 T01890022

METAR Board
Radar Display
Forecast Discussion

TAF Board Legend

Potential Impact
Threat None Slight Moderate High
Visibility (sm) ≥5.1 5.1>X≥3 3>X≥1 <1
Ceiling (100 ft) ≥30.1 30.1>X≥10 10>X≥5 <5
Wind Speed (kt) <10 10≤X<20 20≤X<30 ≥30
Wind Gust (kt) <15 15≤X<25 25≤X<35 ≥35
Weather No Wx Reported VCTS,-TS,-FZRA,SN TS,FZRA +TS,+FZRA,+SN